createdAt,value
2023-10-12T00:00:22.608Z,17.83
2023-10-12T00:02:49.991Z,17.77
2023-10-12T00:05:20.164Z,17.86
2023-10-12T00:07:47.828Z,17.73
2023-10-12T00:10:17.674Z,17.80
2023-10-12T00:12:49.520Z,17.79
2023-10-12T00:15:30.899Z,17.69
2023-10-12T00:18:10.243Z,17.80
2023-10-12T00:20:40.854Z,17.78
2023-10-12T00:23:13.350Z,17.81
2023-10-12T00:25:49.886Z,17.78
2023-10-12T00:28:20.980Z,17.82
2023-10-12T00:30:51.669Z,17.82
2023-10-12T00:33:21.972Z,17.83
2023-10-12T00:36:01.338Z,17.82
2023-10-12T00:38:32.188Z,17.79
2023-10-12T00:41:15.919Z,17.70
2023-10-12T00:44:08.461Z,17.64
2023-10-12T00:46:36.595Z,17.62
2023-10-12T00:49:22.308Z,17.63
2023-10-12T00:52:29.497Z,17.50
2023-10-12T00:55:05.632Z,17.54
2023-10-12T00:57:33.258Z,17.45
2023-10-12T01:00:04.107Z,17.45
2023-10-12T01:02:41.386Z,17.50
2023-10-12T01:05:08.699Z,17.51
2023-10-12T01:07:36.004Z,17.47
2023-10-12T01:10:12.196Z,17.42
2023-10-12T01:12:39.577Z,17.49
2023-10-12T01:15:13.068Z,17.36
2023-10-12T01:17:42.347Z,17.42
2023-10-12T01:20:18.333Z,17.43
2023-10-12T01:22:48.506Z,17.43
2023-10-12T01:25:23.047Z,17.47
2023-10-12T01:27:51.210Z,17.36
2023-10-12T01:30:23.907Z,17.44
2023-10-12T01:33:01.206Z,17.41
2023-10-12T01:35:34.291Z,17.47
2023-10-12T01:38:02.655Z,17.51
2023-10-12T01:40:49.510Z,17.63
2023-10-12T01:43:18.755Z,17.68
2023-10-12T01:45:46.604Z,17.72
2023-10-12T01:48:34.472Z,17.69
2023-10-12T01:51:16.339Z,17.82
2023-10-12T01:53:43.737Z,17.83
2023-10-12T01:56:12.083Z,17.88
2023-10-12T01:58:45.638Z,17.93
2023-10-12T02:01:20.641Z,17.96
2023-10-12T02:03:49.635Z,18.01
2023-10-12T02:06:18.463Z,18.06
2023-10-12T02:08:46.283Z,18.07
2023-10-12T02:11:17.900Z,18.08
2023-10-12T02:13:49.327Z,18.13
2023-10-12T02:16:27.479Z,17.99
2023-10-12T02:18:57.605Z,18.20
2023-10-12T02:21:27.227Z,18.23
2023-10-12T02:23:55.173Z,18.24
2023-10-12T02:26:37.577Z,18.25
2023-10-12T02:29:07.146Z,18.12
2023-10-12T02:31:35.833Z,18.21
2023-10-12T02:34:04.554Z,18.29
2023-10-12T02:36:33.353Z,18.36
2023-10-12T02:39:11.786Z,18.40
2023-10-12T02:41:39.176Z,18.37
2023-10-12T02:44:16.568Z,18.50
2023-10-12T02:47:00.959Z,18.49
2023-10-12T02:49:35.835Z,18.52
2023-10-12T02:52:07.970Z,18.43
2023-10-12T02:54:52.034Z,18.48
2023-10-12T02:57:26.427Z,18.42
2023-10-12T02:59:58.923Z,18.44
2023-10-12T03:02:36.775Z,18.46
2023-10-12T03:05:08.219Z,18.34
2023-10-12T03:07:41.303Z,18.41
2023-10-12T03:10:25.856Z,18.43
2023-10-12T03:12:57.034Z,18.32
2023-10-12T03:15:43.034Z,18.33
2023-10-12T03:18:13.803Z,18.41
2023-10-12T03:20:53.860Z,18.40
2023-10-12T03:23:21.310Z,18.39
2023-10-12T03:25:53.554Z,18.38
2023-10-12T03:28:37.726Z,18.39
2023-10-12T03:31:20.556Z,18.39
2023-10-12T03:33:54.070Z,18.41
2023-10-12T03:36:32.896Z,18.40
2023-10-12T03:39:13.021Z,18.36
2023-10-12T03:42:02.132Z,18.28
2023-10-12T03:44:51.057Z,18.34
2023-10-12T03:47:21.136Z,18.29
2023-10-12T03:49:53.655Z,18.28
2023-10-12T03:52:36.233Z,18.25
2023-10-12T03:55:04.685Z,18.24
2023-10-12T03:58:00.852Z,18.22
2023-10-12T04:00:36.978Z,18.23
2023-10-12T04:03:14.204Z,18.11
2023-10-12T04:05:56.874Z,18.11
2023-10-12T04:08:30.118Z,18.18
2023-10-12T04:11:21.283Z,18.16
2023-10-12T04:13:48.532Z,18.14
2023-10-12T04:16:15.839Z,18.13
2023-10-12T04:18:48.555Z,18.04
2023-10-12T04:21:28.567Z,18.10
2023-10-12T04:24:14.398Z,18.09
2023-10-12T04:26:45.899Z,18.06
2023-10-12T04:29:23.336Z,17.95
2023-10-12T04:31:57.869Z,18.01
2023-10-12T04:34:28.129Z,18.02
2023-10-12T04:37:15.691Z,17.96
2023-10-12T04:39:50.983Z,18.01
2023-10-12T04:42:26.505Z,18.06
2023-10-12T04:45:04.551Z,18.08
2023-10-12T04:47:32.113Z,18.12
2023-10-12T04:49:59.426Z,18.15
2023-10-12T04:52:34.660Z,18.18
2023-10-12T04:55:21.193Z,18.25
2023-10-12T04:58:08.577Z,18.30
2023-10-12T05:00:50.274Z,18.34
2023-10-12T05:03:25.469Z,18.46
2023-10-12T05:06:05.378Z,18.54
2023-10-12T05:08:34.745Z,18.91
2023-10-12T05:11:02.312Z,19.24
2023-10-12T05:13:29.616Z,19.55
2023-10-12T05:15:57.168Z,19.97
2023-10-12T05:18:25.725Z,20.44
2023-10-12T05:20:54.051Z,20.84
2023-10-12T05:23:21.786Z,21.19
2023-10-12T05:25:49.786Z,21.59
2023-10-12T05:28:32.501Z,21.83
2023-10-12T05:31:09.926Z,22.38
2023-10-12T05:33:44.721Z,23.19
2023-10-12T05:36:13.694Z,23.75
2023-10-12T05:38:50.099Z,24.31
2023-10-12T05:41:23.542Z,24.95
2023-10-12T05:43:50.757Z,25.42
2023-10-12T05:46:18.104Z,25.96
2023-10-12T05:48:48.589Z,26.42
2023-10-12T05:51:20.803Z,26.63
2023-10-12T05:53:50.461Z,26.27
2023-10-12T05:56:19.210Z,26.62
2023-10-12T05:58:46.407Z,26.97
2023-10-12T06:04:07.965Z,27.55
2023-10-12T06:06:43.489Z,27.71
2023-10-12T06:09:15.221Z,28.21
2023-10-12T06:11:48.520Z,28.68
2023-10-12T06:14:16.618Z,29.22
2023-10-12T06:16:44.017Z,29.58
2023-10-12T06:19:28.292Z,29.77
2023-10-12T06:22:21.063Z,30.25
2023-10-12T06:24:54.570Z,30.56
2023-10-12T06:27:22.222Z,30.52
2023-10-12T06:29:51.500Z,30.11
2023-10-12T06:32:20.827Z,29.74
2023-10-12T06:35:24.386Z,29.85
2023-10-12T06:37:57.973Z,29.52
2023-10-12T06:40:26.524Z,28.86
2023-10-12T06:43:14.434Z,28.94
2023-10-12T06:45:58.594Z,29.59
2023-10-12T06:48:30.627Z,30.37
2023-10-12T06:51:07.916Z,30.93
2023-10-12T06:53:37.582Z,31.27
2023-10-12T06:56:22.033Z,31.49
2023-10-12T06:59:23.005Z,31.43
2023-10-12T07:01:50.561Z,31.14
2023-10-12T07:04:42.622Z,31.07
2023-10-12T07:07:13.690Z,31.18
2023-10-12T07:09:42.045Z,31.41
2023-10-12T07:12:13.456Z,31.47
2023-10-12T07:14:48.438Z,31.53
2023-10-12T07:17:16.587Z,31.49
2023-10-12T07:19:55.671Z,31.63
2023-10-12T07:22:23.129Z,31.76
2023-10-12T07:24:58.746Z,31.72
2023-10-12T07:27:26.424Z,31.85
2023-10-12T07:30:16.172Z,32.07
2023-10-12T07:32:56.498Z,32.35
2023-10-12T07:35:36.174Z,32.29
2023-10-12T07:38:14.746Z,32.37
2023-10-12T07:40:58.174Z,32.41
2023-10-12T07:43:26.113Z,32.49
2023-10-12T07:45:53.750Z,32.53
2023-10-12T07:48:42.144Z,32.58
2023-10-12T07:51:30.153Z,32.56
2023-10-12T07:54:01.996Z,32.35
2023-10-12T07:56:35.964Z,32.34
2023-10-12T07:59:03.630Z,32.31
2023-10-12T08:01:30.889Z,32.37
2023-10-12T08:04:01.645Z,32.42
2023-10-12T08:06:38.174Z,32.49
2023-10-12T08:09:40.599Z,32.56
2023-10-12T08:12:25.971Z,32.67
2023-10-12T08:15:10.808Z,32.48
2023-10-12T08:17:40.756Z,32.08
2023-10-12T08:20:34.505Z,31.75
2023-10-12T08:23:04.041Z,31.42
2023-10-12T08:25:39.591Z,31.49
2023-10-12T08:28:20.404Z,31.53
2023-10-12T08:30:58.981Z,31.69
2023-10-12T08:33:46.803Z,31.80
2023-10-12T08:36:16.752Z,31.87
2023-10-12T08:39:09.922Z,31.77
2023-10-12T08:41:55.698Z,31.52
2023-10-12T08:44:23.311Z,31.28
2023-10-12T08:46:56.776Z,31.04
2023-10-12T08:49:54.426Z,30.80
2023-10-12T08:52:32.180Z,30.86
2023-10-12T08:55:13.823Z,30.56
2023-10-12T08:58:13.578Z,30.24
2023-10-12T09:01:07.148Z,29.66
2023-10-12T09:03:55.081Z,29.61
2023-10-12T09:06:38.326Z,29.69
2023-10-12T09:09:07.083Z,29.69
2023-10-12T09:11:37.412Z,29.65
2023-10-12T09:14:18.017Z,29.65
2023-10-12T09:16:45.782Z,29.56
2023-10-12T09:19:31.507Z,29.46
2023-10-12T09:22:00.223Z,29.23
2023-10-12T09:24:30.125Z,29.01
2023-10-12T09:27:01.057Z,28.71
2023-10-12T09:29:43.815Z,28.55
2023-10-12T09:32:17.153Z,28.30
2023-10-12T09:35:04.789Z,28.20
2023-10-12T09:37:45.847Z,27.96
2023-10-12T09:40:36.740Z,27.88
2023-10-12T09:43:14.372Z,27.76
2023-10-12T09:45:49.255Z,27.68
2023-10-12T09:48:28.873Z,27.78
2023-10-12T09:50:57.442Z,27.84
2023-10-12T09:53:42.915Z,27.71
2023-10-12T09:56:17.403Z,27.90
2023-10-12T09:58:55.331Z,27.73
2023-10-12T10:01:40.840Z,27.55
2023-10-12T10:04:27.345Z,27.61
2023-10-12T10:07:10.257Z,27.62
2023-10-12T10:09:40.118Z,27.68
2023-10-12T10:12:09.975Z,27.70
2023-10-12T10:14:41.148Z,27.71
2023-10-12T10:17:17.417Z,27.75
2023-10-12T10:19:53.392Z,27.79
2023-10-12T10:22:23.253Z,27.86
2023-10-12T10:24:57.339Z,27.76
2023-10-12T10:27:36.821Z,27.79
2023-10-12T10:30:38.121Z,27.87
2023-10-12T10:33:15.601Z,27.81
2023-10-12T10:36:06.439Z,27.71
2023-10-12T10:38:33.919Z,27.53
2023-10-12T10:41:09.658Z,27.41
2023-10-12T10:43:41.801Z,27.30
2023-10-12T10:46:13.232Z,27.36
2023-10-12T10:51:29.185Z,27.34
2023-10-12T10:54:00.242Z,27.34
2023-10-12T10:56:43.121Z,27.38
2023-10-12T10:59:14.094Z,27.54
2023-10-12T11:01:48.231Z,27.65
2023-10-12T11:04:34.342Z,27.65
2023-10-12T11:07:13.562Z,27.48
2023-10-12T11:09:55.012Z,27.36
2023-10-12T11:12:24.591Z,27.25
2023-10-12T11:15:02.501Z,27.25
2023-10-12T11:17:37.545Z,27.28
2023-10-12T11:20:27.922Z,27.37
2023-10-12T11:22:56.012Z,27.37
2023-10-12T11:25:23.414Z,27.38
2023-10-12T11:27:53.080Z,27.35
2023-10-12T11:30:43.803Z,27.35
2023-10-12T11:33:11.378Z,27.25
2023-10-12T11:35:42.136Z,27.33
2023-10-12T11:38:19.941Z,27.30
2023-10-12T11:40:56.864Z,27.22
2023-10-12T11:43:45.900Z,27.25
2023-10-12T11:46:27.725Z,27.16
2023-10-12T11:49:03.265Z,27.11
2023-10-12T11:51:31.171Z,27.13
2023-10-12T11:53:59.359Z,27.08
2023-10-12T11:56:26.541Z,27.03
2023-10-12T11:58:58.799Z,27.01
2023-10-12T12:01:31.100Z,26.95
2023-10-12T12:03:58.732Z,26.93
2023-10-12T12:06:29.878Z,26.91
2023-10-12T12:09:01.208Z,26.83
2023-10-12T12:11:33.105Z,26.87
2023-10-12T12:14:01.954Z,26.93
2023-10-12T12:16:29.169Z,26.91
2023-10-12T12:18:56.795Z,26.76
2023-10-12T12:21:34.784Z,26.73
2023-10-12T12:24:26.464Z,26.79
2023-10-12T12:26:54.992Z,26.81
2023-10-12T12:29:35.413Z,26.77
2023-10-12T12:32:07.604Z,26.79
2023-10-12T12:34:43.541Z,26.73
2023-10-12T12:37:23.329Z,26.63
2023-10-12T12:40:16.465Z,26.60
2023-10-12T12:42:45.939Z,26.53
2023-10-12T12:45:13.149Z,26.46
2023-10-12T12:47:40.671Z,26.45
2023-10-12T12:50:10.174Z,26.52
2023-10-12T12:52:42.314Z,26.56
2023-10-12T12:55:12.447Z,26.53
2023-10-12T12:57:40.714Z,26.48
2023-10-12T13:00:09.972Z,26.46
2023-10-12T13:02:40.297Z,26.45
2023-10-12T13:05:09.538Z,26.34
2023-10-12T13:07:36.733Z,26.30
2023-10-12T13:10:04.297Z,26.30
2023-10-12T13:12:33.077Z,26.22
2023-10-12T13:15:03.842Z,26.14
2023-10-12T13:17:34.360Z,26.14
2023-10-12T13:20:01.684Z,26.13
2023-10-12T13:22:29.193Z,26.13
2023-10-12T13:24:58.551Z,26.06
2023-10-12T13:27:29.161Z,26.12
2023-10-12T13:30:11.205Z,26.12
2023-10-12T13:32:38.583Z,26.04
2023-10-12T13:35:24.903Z,26.00
2023-10-12T13:37:54.787Z,25.96
2023-10-12T13:40:21.924Z,25.88
2023-10-12T13:42:49.265Z,25.81
2023-10-12T13:45:20.044Z,25.73
2023-10-12T13:47:48.603Z,25.69
2023-10-12T13:50:16.455Z,25.77
2023-10-12T13:52:43.758Z,25.71
2023-10-12T13:55:15.484Z,25.71
2023-10-12T13:57:57.156Z,25.68
2023-10-12T14:00:28.473Z,25.64
2023-10-12T14:02:58.212Z,25.58
2023-10-12T14:05:29.189Z,25.45
2023-10-12T14:08:03.144Z,25.45
2023-10-12T14:10:31.268Z,25.37
2023-10-12T14:12:58.432Z,25.34
2023-10-12T14:15:29.004Z,25.31
2023-10-12T14:18:00.741Z,25.28
2023-10-12T14:20:31.093Z,25.25
2023-10-12T14:23:07.396Z,25.10
2023-10-12T14:25:40.397Z,25.13
2023-10-12T14:28:07.677Z,25.06
2023-10-12T14:30:35.513Z,25.11
2023-10-12T14:33:04.147Z,25.05
2023-10-12T14:35:32.187Z,24.95
2023-10-12T14:37:59.310Z,25.01
2023-10-12T14:40:33.316Z,24.97
2023-10-12T14:43:22.301Z,24.89
2023-10-12T14:46:00.045Z,24.84
2023-10-12T14:48:27.899Z,24.78
2023-10-12T14:51:10.533Z,24.65
2023-10-12T14:53:37.732Z,24.69
2023-10-12T14:56:05.385Z,24.69
2023-10-12T14:58:33.032Z,24.68
2023-10-12T15:01:01.039Z,24.63
2023-10-12T15:03:34.011Z,24.56
2023-10-12T15:06:04.392Z,24.55
2023-10-12T15:08:31.667Z,24.57
2023-10-12T15:11:00.872Z,24.53
2023-10-12T15:13:28.439Z,24.50
2023-10-12T15:15:55.813Z,24.48
2023-10-12T15:18:26.516Z,24.41
2023-10-12T15:21:02.234Z,24.36
2023-10-12T15:23:36.361Z,24.26
2023-10-12T15:26:03.539Z,24.24
2023-10-12T15:28:30.631Z,24.20
2023-10-12T15:30:57.781Z,24.16
2023-10-12T15:33:26.490Z,24.04
2023-10-12T15:35:53.590Z,24.02
2023-10-12T15:38:20.762Z,23.99
2023-10-12T15:40:47.857Z,23.90
2023-10-12T15:43:18.371Z,23.86
2023-10-12T15:45:46.876Z,23.88
2023-10-12T15:48:15.284Z,23.85
2023-10-12T15:50:43.912Z,23.80
2023-10-12T15:53:11.045Z,23.76
2023-10-12T15:55:38.257Z,23.67
2023-10-12T15:58:07.265Z,23.67
2023-10-12T16:00:34.506Z,23.63
2023-10-12T16:03:09.941Z,23.49
2023-10-12T16:05:37.956Z,23.44
2023-10-12T16:08:18.161Z,23.47
2023-10-12T16:10:50.777Z,23.41
2023-10-12T16:13:18.797Z,23.34
2023-10-12T16:15:46.250Z,23.30
2023-10-12T16:18:13.792Z,23.21
2023-10-12T16:20:41.389Z,23.14
2023-10-12T16:23:08.886Z,23.05
2023-10-12T16:25:36.264Z,22.97
2023-10-12T16:28:03.956Z,22.84
2023-10-12T16:30:36.244Z,22.83
2023-10-12T16:33:03.919Z,22.69
2023-10-12T16:35:31.872Z,22.50
2023-10-12T16:38:01.718Z,22.48
2023-10-12T16:40:31.689Z,22.44
2023-10-12T16:42:58.990Z,22.38
2023-10-12T16:45:26.882Z,22.39
2023-10-12T16:47:54.188Z,22.31
2023-10-12T16:50:21.657Z,22.33
2023-10-12T16:52:51.417Z,22.25
2023-10-12T16:55:20.203Z,22.23
2023-10-12T16:57:47.467Z,22.15
2023-10-12T17:00:18.606Z,22.08
2023-10-12T17:02:47.165Z,21.98
2023-10-12T17:05:15.746Z,21.92
2023-10-12T17:07:46.516Z,21.79
2023-10-12T17:10:18.568Z,21.84
2023-10-12T17:12:45.859Z,21.80
2023-10-12T17:15:13.366Z,21.77
2023-10-12T17:17:40.485Z,21.77
2023-10-12T17:20:12.791Z,21.69
2023-10-12T17:22:40.666Z,21.68
2023-10-12T17:25:10.450Z,21.55
2023-10-12T17:27:38.895Z,21.57
2023-10-12T17:30:10.978Z,21.59
2023-10-12T17:32:39.097Z,21.62
2023-10-12T17:35:06.655Z,21.48
2023-10-12T17:37:36.588Z,21.49
2023-10-12T17:40:04.326Z,21.45
2023-10-12T17:42:33.624Z,21.31
2023-10-12T17:45:02.844Z,21.33
2023-10-12T17:47:29.943Z,21.27
2023-10-12T17:49:57.108Z,21.15
2023-10-12T17:52:25.293Z,21.20
2023-10-12T17:54:52.676Z,21.09
2023-10-12T17:57:20.317Z,21.11
2023-10-12T17:59:48.554Z,21.08
2023-10-12T18:02:15.819Z,20.97
2023-10-12T18:04:47.408Z,20.93
2023-10-12T18:07:15.340Z,20.94
2023-10-12T18:09:45.916Z,20.84
2023-10-12T18:12:13.084Z,20.76
2023-10-12T18:14:40.819Z,20.76
2023-10-12T18:17:08.112Z,20.73
2023-10-12T18:19:36.345Z,20.68
2023-10-12T18:22:03.673Z,20.67
2023-10-12T18:24:32.183Z,20.58
2023-10-12T18:26:59.729Z,20.61
2023-10-12T18:29:27.007Z,20.54
2023-10-12T18:31:54.208Z,20.53
2023-10-12T18:34:21.556Z,20.50
2023-10-12T18:36:58.247Z,20.51
2023-10-12T18:39:33.319Z,20.51
2023-10-12T18:42:00.514Z,20.47
2023-10-12T18:44:29.314Z,20.38
2023-10-12T18:46:56.969Z,20.32
2023-10-12T18:49:24.341Z,20.27
2023-10-12T18:51:51.554Z,20.23
2023-10-12T18:54:20.119Z,20.10
2023-10-12T18:56:47.448Z,20.09
2023-10-12T18:59:16.360Z,19.95
2023-10-12T19:01:44.305Z,20.03
2023-10-12T19:04:12.015Z,20.02
2023-10-12T19:06:39.146Z,19.98
2023-10-12T19:09:06.602Z,19.93
2023-10-12T19:11:33.693Z,19.90
2023-10-12T19:14:00.761Z,19.80
2023-10-12T19:16:28.034Z,19.84
2023-10-12T19:18:55.656Z,19.77
2023-10-12T19:21:23.842Z,19.79
2023-10-12T19:23:51.087Z,19.73
2023-10-12T19:26:18.280Z,19.71
2023-10-12T19:28:45.835Z,19.60
2023-10-12T19:31:15.156Z,19.52
2023-10-12T19:33:43.376Z,19.57
2023-10-12T19:36:11.886Z,19.56
2023-10-12T19:38:40.700Z,19.54
2023-10-12T19:41:09.392Z,19.52
2023-10-12T19:43:41.400Z,19.47
2023-10-12T19:46:12.753Z,19.45
2023-10-12T19:48:40.956Z,19.41
2023-10-12T19:51:15.142Z,19.36
2023-10-12T19:53:44.424Z,19.29
2023-10-12T19:56:16.297Z,19.33
2023-10-12T19:58:50.531Z,19.29
2023-10-12T20:01:22.351Z,19.28
2023-10-12T20:03:51.091Z,19.23
2023-10-12T20:06:19.650Z,19.20
2023-10-12T20:08:50.658Z,19.18
2023-10-12T20:11:18.888Z,19.12
2023-10-12T20:13:49.733Z,19.00
2023-10-12T20:16:25.250Z,18.97
2023-10-12T20:18:52.832Z,18.96
2023-10-12T20:21:21.576Z,18.88
2023-10-12T20:23:49.827Z,18.93
2023-10-12T20:26:19.153Z,18.90
2023-10-12T20:28:46.616Z,18.84
2023-10-12T20:31:15.508Z,18.78
2023-10-12T20:33:44.331Z,18.77
2023-10-12T20:36:12.632Z,18.73
2023-10-12T20:38:40.700Z,18.62
2023-10-12T20:41:08.133Z,18.58
2023-10-12T20:43:39.531Z,18.57
2023-10-12T20:46:09.896Z,18.62
2023-10-12T20:48:37.814Z,18.55
2023-10-12T20:51:07.985Z,18.57
2023-10-12T20:53:35.827Z,18.51
2023-10-12T20:56:28.209Z,18.53
2023-10-12T20:59:12.395Z,18.50
2023-10-12T21:01:58.785Z,18.46
2023-10-12T21:04:26.893Z,18.36
2023-10-12T21:06:57.112Z,18.41
2023-10-12T21:09:24.689Z,18.38
2023-10-12T21:11:58.993Z,18.34
2023-10-12T21:14:27.989Z,18.25
2023-10-12T21:16:56.942Z,18.30
2023-10-12T21:19:27.279Z,18.28
2023-10-12T21:22:09.131Z,18.24
2023-10-12T21:24:39.467Z,18.13
2023-10-12T21:27:09.102Z,18.16
2023-10-12T21:29:36.381Z,18.14
2023-10-12T21:32:10.995Z,18.12
2023-10-12T21:34:39.009Z,18.10
2023-10-12T21:37:06.493Z,18.06
2023-10-12T21:39:43.260Z,18.06
2023-10-12T21:42:11.300Z,18.03
2023-10-12T21:44:42.456Z,17.97
2023-10-12T21:47:15.502Z,17.96
2023-10-12T21:49:42.650Z,17.91
2023-10-12T21:52:09.856Z,17.97
2023-10-12T21:54:37.713Z,17.95
2023-10-12T21:57:11.308Z,17.86
2023-10-12T21:59:39.429Z,17.89
2023-10-12T22:04:38.486Z,17.86
2023-10-12T22:07:08.438Z,17.84
2023-10-12T22:09:45.687Z,17.79
2023-10-12T22:12:20.568Z,17.76
2023-10-12T22:14:50.648Z,17.75
2023-10-12T22:17:27.555Z,17.75
2023-10-12T22:19:55.903Z,17.72
2023-10-12T22:22:26.115Z,17.65
2023-10-12T22:24:55.451Z,17.69
2023-10-12T22:27:23.556Z,17.68
2023-10-12T22:29:50.711Z,17.58
2023-10-12T22:32:17.774Z,17.65
2023-10-12T22:34:45.005Z,17.57
2023-10-12T22:37:12.719Z,17.57
2023-10-12T22:39:40.459Z,17.64
2023-10-12T22:42:07.608Z,17.61
2023-10-12T22:44:37.250Z,17.67
2023-10-12T22:47:04.906Z,17.67
2023-10-12T22:49:35.146Z,17.67
2023-10-12T22:52:02.536Z,17.66
2023-10-12T22:54:35.084Z,17.64
2023-10-12T22:57:06.618Z,17.67
2023-10-12T22:59:33.891Z,17.63
2023-10-12T23:02:01.550Z,17.62
2023-10-12T23:04:29.110Z,17.62
2023-10-12T23:06:56.627Z,17.60
2023-10-12T23:09:25.038Z,17.61
2023-10-12T23:11:56.679Z,17.61
2023-10-12T23:14:29.031Z,17.57
2023-10-12T23:16:59.877Z,17.57
2023-10-12T23:19:45.371Z,17.55
2023-10-12T23:22:32.979Z,17.51
2023-10-12T23:25:02.837Z,17.34
2023-10-12T23:27:33.465Z,17.41
2023-10-12T23:30:02.076Z,17.40
2023-10-12T23:32:31.785Z,17.37
2023-10-12T23:35:00.366Z,17.36
2023-10-12T23:37:27.865Z,17.34
2023-10-12T23:39:57.417Z,17.32
2023-10-12T23:42:24.743Z,17.31
2023-10-12T23:44:51.874Z,17.22
2023-10-12T23:47:33.954Z,17.29
2023-10-12T23:50:10.471Z,17.28
2023-10-12T23:53:08.848Z,17.27
2023-10-12T23:55:42.566Z,17.23
2023-10-12T23:58:13.895Z,17.14
